createdAt,value
2022-09-30T00:03:43.969Z,71.59
2022-09-30T00:07:47.438Z,71.82
2022-09-30T00:11:53.830Z,71.21
2022-09-30T00:15:57.099Z,71.68
2022-09-30T00:20:00.197Z,71.71
2022-09-30T00:24:04.951Z,72.13
2022-09-30T00:28:09.371Z,71.82
2022-09-30T00:32:13.341Z,71.80
2022-09-30T00:36:16.507Z,71.85
2022-09-30T00:40:22.022Z,71.86
2022-09-30T00:45:01.723Z,71.53
2022-09-30T00:49:13.449Z,71.75
2022-09-30T00:53:21.802Z,72.14
2022-09-30T01:01:34.257Z,72.34
2022-09-30T01:05:38.993Z,71.90
2022-09-30T01:09:44.303Z,72.14
2022-09-30T01:13:52.891Z,72.08
2022-09-30T01:18:03.144Z,72.07
2022-09-30T01:22:30.579Z,72.04
2022-09-30T01:27:03.998Z,71.80
2022-09-30T01:31:22.595Z,71.81
2022-09-30T01:35:36.116Z,72.28
2022-09-30T01:39:48.587Z,72.58
2022-09-30T01:44:04.694Z,72.38
2022-09-30T01:48:20.419Z,72.14
2022-09-30T01:52:28.757Z,72.18
2022-09-30T01:56:41.200Z,72.42
2022-09-30T02:00:50.450Z,72.40
2022-09-30T02:04:59.637Z,72.35
2022-09-30T02:09:07.242Z,72.56
2022-09-30T02:13:17.161Z,72.84
2022-09-30T02:17:24.812Z,72.47
2022-09-30T02:21:34.482Z,72.72
2022-09-30T02:25:43.704Z,72.44
2022-09-30T02:29:53.173Z,72.49
2022-09-30T02:34:01.176Z,72.80
2022-09-30T02:38:12.243Z,72.85
2022-09-30T02:42:21.007Z,72.87
2022-09-30T02:46:28.061Z,72.93
2022-09-30T02:50:35.787Z,72.84
2022-09-30T02:54:50.281Z,73.05
2022-09-30T02:58:57.146Z,72.90
2022-09-30T03:03:05.759Z,73.07
2022-09-30T03:07:09.777Z,73.00
2022-09-30T03:11:18.240Z,72.60
2022-09-30T03:15:40.720Z,72.64
2022-09-30T03:20:01.847Z,72.67
2022-09-30T03:24:47.218Z,72.49
2022-09-30T03:29:07.260Z,72.51
2022-09-30T03:33:17.666Z,72.95
2022-09-30T03:37:30.300Z,72.55
2022-09-30T03:41:41.869Z,72.60
2022-09-30T03:45:53.185Z,73.04
2022-09-30T03:50:01.905Z,72.95
2022-09-30T03:54:10.784Z,73.04
2022-09-30T03:58:14.546Z,72.71
2022-09-30T04:02:19.322Z,72.76
2022-09-30T04:06:25.074Z,72.72
2022-09-30T04:10:28.625Z,72.86
2022-09-30T04:14:31.693Z,73.01
2022-09-30T04:18:38.819Z,73.16
2022-09-30T04:22:42.382Z,72.99
2022-09-30T04:26:45.678Z,73.12
2022-09-30T04:30:49.116Z,72.89
2022-09-30T04:34:54.673Z,73.19
2022-09-30T04:38:58.062Z,73.27
2022-09-30T04:43:01.107Z,73.38
2022-09-30T04:47:04.373Z,73.22
2022-09-30T04:51:09.184Z,73.05
2022-09-30T04:55:16.460Z,73.36
2022-09-30T04:59:19.496Z,73.43
2022-09-30T05:03:23.411Z,73.47
2022-09-30T05:07:28.454Z,73.42
2022-09-30T05:11:31.458Z,73.41
2022-09-30T05:15:36.914Z,73.36
2022-09-30T05:19:39.937Z,73.42
2022-09-30T05:23:44.500Z,73.37
2022-09-30T05:27:50.358Z,73.31
2022-09-30T05:31:53.918Z,73.46
2022-09-30T05:35:59.812Z,73.21
2022-09-30T05:40:05.021Z,73.74
2022-09-30T05:44:09.796Z,73.59
2022-09-30T05:48:12.743Z,73.49
2022-09-30T05:52:16.387Z,73.59
2022-09-30T05:56:21.228Z,73.67
2022-09-30T06:00:24.499Z,73.43
2022-09-30T06:04:28.189Z,73.79
2022-09-30T06:08:31.721Z,73.62
2022-09-30T06:12:37.250Z,73.72
2022-09-30T06:16:41.477Z,73.54
2022-09-30T06:20:44.604Z,73.12
2022-09-30T06:24:52.728Z,73.00
2022-09-30T06:28:59.855Z,72.80
2022-09-30T06:33:02.916Z,73.30
2022-09-30T06:37:06.826Z,72.71
2022-09-30T06:41:11.647Z,72.44
2022-09-30T06:45:28.620Z,72.39
2022-09-30T06:49:46.563Z,72.39
2022-09-30T06:53:53.451Z,72.39
2022-09-30T07:02:01.349Z,72.42
2022-09-30T07:06:06.790Z,72.63
2022-09-30T07:10:10.745Z,72.65
2022-09-30T07:14:15.113Z,72.32
2022-09-30T07:18:21.172Z,72.74
2022-09-30T07:22:32.292Z,72.36
2022-09-30T07:26:35.806Z,72.13
2022-09-30T07:30:39.522Z,72.32
2022-09-30T07:34:44.411Z,72.10
2022-09-30T07:38:51.083Z,72.20
2022-09-30T07:42:55.783Z,72.23
2022-09-30T07:46:58.895Z,72.20
2022-09-30T07:51:03.786Z,72.39
2022-09-30T07:55:07.678Z,72.44
2022-09-30T07:59:12.417Z,72.63
2022-09-30T08:03:15.929Z,72.71
2022-09-30T08:07:21.134Z,72.30
2022-09-30T08:11:25.098Z,72.13
2022-09-30T08:15:28.744Z,72.36
2022-09-30T08:19:33.784Z,72.42
2022-09-30T08:23:38.793Z,72.63
2022-09-30T08:27:42.301Z,72.85
2022-09-30T08:31:45.487Z,72.44
2022-09-30T08:35:48.974Z,71.62
2022-09-30T08:39:54.050Z,71.49
2022-09-30T08:44:07.803Z,70.71
2022-09-30T08:48:24.075Z,70.69
2022-09-30T08:52:47.963Z,70.17
2022-09-30T08:56:53.618Z,70.62
2022-09-30T09:01:02.339Z,69.76
2022-09-30T09:05:08.110Z,70.09
2022-09-30T09:09:20.890Z,69.39
2022-09-30T09:13:41.055Z,69.75
2022-09-30T09:18:22.614Z,69.69
2022-09-30T09:22:28.523Z,69.33
2022-09-30T09:26:37.458Z,69.95
2022-09-30T09:30:50.951Z,67.37
2022-09-30T09:34:59.015Z,66.00
2022-09-30T09:39:21.047Z,67.29
2022-09-30T09:43:37.834Z,66.36
2022-09-30T09:47:45.896Z,64.37
2022-09-30T09:51:55.133Z,61.15
2022-09-30T09:56:00.788Z,61.44
2022-09-30T10:00:20.757Z,61.70
2022-09-30T10:04:27.760Z,61.61
2022-09-30T10:08:33.158Z,60.63
2022-09-30T10:12:37.455Z,60.53
2022-09-30T10:16:40.538Z,59.82
2022-09-30T10:20:53.113Z,63.12
2022-09-30T10:25:12.360Z,62.71
2022-09-30T10:29:29.386Z,62.36
2022-09-30T10:33:38.504Z,59.32
2022-09-30T10:37:52.771Z,59.92
2022-09-30T10:42:04.321Z,57.31
2022-09-30T10:46:26.796Z,55.13
2022-09-30T10:50:31.162Z,53.21
2022-09-30T10:54:49.562Z,54.64
2022-09-30T10:58:58.232Z,52.56
2022-09-30T11:03:07.107Z,53.39
2022-09-30T11:07:23.402Z,55.00
2022-09-30T11:11:36.358Z,54.06
2022-09-30T11:15:50.880Z,55.30
2022-09-30T11:20:05.749Z,54.69
2022-09-30T11:24:23.952Z,56.81
2022-09-30T11:28:52.011Z,57.60
2022-09-30T11:33:13.566Z,56.00
2022-09-30T11:37:29.049Z,54.44
2022-09-30T11:41:37.635Z,50.92
2022-09-30T11:45:56.978Z,52.98
2022-09-30T11:50:26.979Z,54.29
2022-09-30T11:54:43.393Z,50.85
2022-09-30T11:58:51.599Z,47.88
2022-09-30T12:03:04.720Z,50.40
2022-09-30T12:07:19.392Z,49.52
2022-09-30T12:11:30.267Z,48.22
2022-09-30T12:15:36.228Z,48.29
2022-09-30T12:19:46.659Z,49.81
2022-09-30T12:23:57.627Z,49.77
2022-09-30T12:28:29.138Z,52.64
2022-09-30T12:32:59.052Z,54.73
2022-09-30T12:37:19.482Z,55.70
2022-09-30T12:41:42.698Z,56.69
2022-09-30T12:46:26.707Z,58.06
2022-09-30T12:50:35.551Z,55.08
2022-09-30T12:54:44.797Z,52.37
2022-09-30T12:58:51.495Z,53.88
2022-09-30T13:02:59.920Z,53.31
2022-09-30T13:07:24.043Z,56.32
2022-09-30T13:11:37.943Z,55.46
2022-09-30T13:15:43.417Z,52.49
2022-09-30T13:19:48.215Z,52.42
2022-09-30T13:23:52.688Z,53.42
2022-09-30T13:28:25.727Z,56.54
2022-09-30T13:32:34.117Z,60.14
2022-09-30T13:36:43.540Z,55.79
2022-09-30T13:41:01.707Z,54.37
2022-09-30T13:45:13.668Z,52.86
2022-09-30T13:49:21.042Z,53.40
2022-09-30T13:53:30.984Z,55.03
2022-09-30T13:57:43.888Z,54.25
2022-09-30T14:02:00.911Z,53.95
2022-09-30T14:06:15.353Z,54.77
2022-09-30T14:10:33.028Z,55.50
2022-09-30T14:15:07.706Z,55.30
2022-09-30T14:19:33.089Z,55.14
2022-09-30T14:23:38.218Z,53.97
2022-09-30T14:27:52.786Z,56.37
2022-09-30T14:31:56.872Z,55.52
2022-09-30T14:36:03.227Z,55.64
2022-09-30T14:40:14.132Z,56.17
2022-09-30T14:44:20.563Z,53.62
2022-09-30T14:48:27.145Z,55.24
2022-09-30T14:52:37.269Z,54.05
2022-09-30T14:56:42.504Z,54.03
2022-09-30T15:00:48.852Z,54.15
2022-09-30T15:05:00.407Z,54.44
2022-09-30T15:09:07.768Z,54.79
2022-09-30T15:13:12.812Z,55.41
2022-09-30T15:17:21.352Z,56.61
2022-09-30T15:21:26.093Z,54.79
2022-09-30T15:25:30.096Z,56.03
2022-09-30T15:29:34.441Z,56.71
2022-09-30T15:33:38.076Z,55.96
2022-09-30T15:37:41.316Z,57.37
2022-09-30T15:41:46.458Z,57.56
2022-09-30T15:45:58.998Z,59.28
2022-09-30T15:50:03.005Z,58.75
2022-09-30T15:54:32.059Z,60.68
2022-09-30T15:58:39.613Z,59.46
2022-09-30T16:02:44.101Z,58.55
2022-09-30T16:06:49.876Z,59.81
2022-09-30T16:10:57.383Z,61.56
2022-09-30T16:15:09.048Z,60.89
2022-09-30T16:19:19.325Z,62.07
2022-09-30T16:23:30.798Z,62.00
2022-09-30T16:27:34.074Z,62.47
2022-09-30T16:31:37.769Z,62.51
2022-09-30T16:35:44.023Z,63.29
2022-09-30T16:39:48.149Z,64.73
2022-09-30T16:43:51.477Z,64.88
2022-09-30T16:47:56.373Z,65.14
2022-09-30T16:52:01.461Z,65.46
2022-09-30T16:56:05.204Z,65.37
2022-09-30T17:00:09.283Z,64.94
2022-09-30T17:04:15.389Z,64.70
2022-09-30T17:08:24.505Z,65.13
2022-09-30T17:12:27.814Z,65.52
2022-09-30T17:16:32.407Z,67.25
2022-09-30T17:20:37.196Z,67.18
2022-09-30T17:24:41.869Z,67.00
2022-09-30T17:28:45.912Z,67.23
2022-09-30T17:32:50.002Z,67.07
2022-09-30T17:36:55.420Z,67.01
2022-09-30T17:41:17.925Z,67.10
2022-09-30T17:45:21.620Z,67.10
2022-09-30T17:49:24.784Z,67.12
2022-09-30T17:53:31.405Z,67.77
2022-09-30T17:57:40.236Z,67.72
2022-09-30T18:01:44.087Z,67.60
2022-09-30T18:05:47.373Z,68.14
2022-09-30T18:09:51.899Z,68.03
2022-09-30T18:13:59.708Z,68.42
2022-09-30T18:18:03.626Z,67.98
2022-09-30T18:22:06.673Z,67.86
2022-09-30T18:26:10.199Z,67.74
2022-09-30T18:30:15.800Z,68.33
2022-09-30T18:34:19.759Z,68.27
2022-09-30T18:38:22.746Z,68.02
2022-09-30T18:42:26.872Z,67.89
2022-09-30T18:46:32.302Z,68.03
2022-09-30T18:50:35.492Z,68.26
2022-09-30T18:54:38.610Z,68.83
2022-09-30T18:58:42.979Z,68.52
2022-09-30T19:02:48.001Z,68.25
2022-09-30T19:06:52.336Z,68.46
2022-09-30T19:10:56.021Z,68.76
2022-09-30T19:15:05.184Z,68.81
2022-09-30T19:19:11.971Z,68.79
2022-09-30T19:23:16.179Z,68.54
2022-09-30T19:27:21.141Z,68.61
2022-09-30T19:31:24.827Z,68.95
2022-09-30T19:35:39.639Z,69.08
2022-09-30T19:39:46.236Z,69.20
2022-09-30T19:43:51.632Z,69.01
2022-09-30T19:47:55.311Z,69.00
2022-09-30T19:52:09.294Z,69.21
2022-09-30T19:56:20.558Z,69.80
2022-09-30T20:00:29.820Z,70.17
2022-09-30T20:04:34.497Z,69.81
2022-09-30T20:08:40.367Z,69.76
2022-09-30T20:12:43.962Z,69.56
2022-09-30T20:16:48.934Z,69.31
2022-09-30T20:20:54.880Z,69.05
2022-09-30T20:24:59.707Z,69.38
2022-09-30T20:29:03.391Z,69.51
2022-09-30T20:33:07.804Z,69.63
2022-09-30T20:37:11.205Z,69.82
2022-09-30T20:41:15.872Z,69.83
2022-09-30T20:45:20.023Z,70.00
2022-09-30T20:49:24.680Z,69.91
2022-09-30T20:53:27.876Z,70.09
2022-09-30T20:57:33.064Z,70.20
2022-09-30T21:01:37.430Z,70.21
2022-09-30T21:05:41.240Z,70.45
2022-09-30T21:09:44.397Z,70.49
2022-09-30T21:13:51.668Z,70.34
2022-09-30T21:17:55.063Z,70.35
2022-09-30T21:21:58.216Z,70.47
2022-09-30T21:26:03.318Z,70.69
2022-09-30T21:30:09.311Z,70.68
2022-09-30T21:34:15.382Z,71.05
2022-09-30T21:38:18.350Z,71.10
2022-09-30T21:42:22.951Z,71.24
2022-09-30T21:46:29.623Z,71.32
2022-09-30T21:50:35.523Z,71.28
2022-09-30T21:54:39.388Z,71.73
2022-09-30T21:58:42.849Z,71.79
2022-09-30T22:02:47.695Z,71.71
2022-09-30T22:06:50.737Z,71.83
2022-09-30T22:10:54.348Z,72.25
2022-09-30T22:14:57.278Z,71.77
2022-09-30T22:19:03.955Z,71.97
2022-09-30T22:23:07.080Z,71.79
2022-09-30T22:27:11.969Z,72.33
2022-09-30T22:31:18.628Z,71.77
2022-09-30T22:35:40.823Z,72.04
2022-09-30T22:39:43.813Z,72.05
2022-09-30T22:43:47.355Z,71.97
2022-09-30T22:47:50.280Z,72.29
2022-09-30T22:51:56.265Z,72.21
2022-09-30T22:55:59.644Z,72.05
2022-09-30T23:00:04.133Z,71.65
2022-09-30T23:04:08.146Z,72.01
2022-09-30T23:08:13.047Z,72.31
2022-09-30T23:12:16.088Z,72.01
2022-09-30T23:16:19.547Z,72.57
2022-09-30T23:20:23.256Z,72.45
2022-09-30T23:24:28.534Z,71.71
2022-09-30T23:28:32.373Z,71.77
2022-09-30T23:32:35.324Z,71.45
2022-09-30T23:36:39.417Z,71.93
2022-09-30T23:40:59.156Z,72.28
2022-09-30T23:45:02.530Z,71.86
2022-09-30T23:49:05.893Z,71.97
2022-09-30T23:53:09.373Z,72.04
2022-09-30T23:57:13.965Z,72.22
